Time;durP1;ratioP1;P1;durP2;ratioP2;P2;SDS_P1;SDS_P2;PMS_P1;PMS_P2;Temp;Humidity;BMP_temperature;BMP_pressure;BME280_temperature;BME280_humidity;BME280_pressure;Samples;Min_cycle;Max_cycle;Signal;HPM_P1;HPM_P2
2021/04/14 00:01:52;;;;;;;7.73;4.57;;;;;;;;;;4313716;33;20238;-66
2021/04/14 00:04:17;;;;;;;5.10;4.50;;;;;;;;;;4314203;33;20219;-62
2021/04/14 00:06:43;;;;;;;5.60;2.70;;;;;;;;;;4297874;33;20243;-63
2021/04/14 00:09:09;;;;;;;3.67;3.03;;;;;;;;;;4298417;33;20329;-62
2021/04/14 00:11:36;;;;;;;2.80;2.03;;;;;;;;;;4285991;33;20293;-56
2021/04/14 00:14:02;;;;;;;2.97;2.63;;;;;;;;;;4299288;33;20255;-58
2021/04/14 00:16:27;;;;;;;4.67;1.97;;;;;;;;;;4299161;33;20244;-57
2021/04/14 00:18:53;;;;;;;2.63;1.87;;;;;;;;;;4299575;33;20309;-58
2021/04/14 00:21:22;;;;;;;1.60;1.10;;;;;;;;;;4297803;33;20243;-57
2021/04/14 00:23:49;;;;;;;4.20;1.30;;;;;;;;;;4297623;33;20228;-59
2021/04/14 00:26:15;;;;;;;4.90;1.63;;;;;;;;;;4298822;33;20242;-58
2021/04/14 00:28:41;;;;;;;2.60;1.20;;;;;;;;;;4299349;33;20760;-58
2021/04/14 00:31:08;;;;;;;1.23;1.00;;;;;;;;;;4298770;33;20712;-57
2021/04/14 00:33:34;;;;;;;2.67;1.07;;;;;;;;;;4299434;33;20287;-57
2021/04/14 00:35:59;;;;;;;3.77;1.07;;;;;;;;;;4299032;33;20303;-56
2021/04/14 00:38:25;;;;;;;3.10;2.63;;;;;;;;;;4297802;33;20397;-56
2021/04/14 00:40:55;;;;;;;2.00;1.40;;;;;;;;;;4298939;33;20313;-57
2021/04/14 00:43:24;;;;;;;1.80;1.00;;;;;;;;;;4299334;33;20216;-57
2021/04/14 00:45:49;;;;;;;1.00;0.80;;;;;;;;;;4298615;33;20262;-57
2021/04/14 00:48:17;;;;;;;1.40;1.10;;;;;;;;;;4298749;33;20216;-58
2021/04/14 00:50:43;;;;;;;0.60;0.60;;;;;;;;;;4298816;33;20219;-59
2021/04/14 00:53:09;;;;;;;2.20;1.80;;;;;;;;;;4299027;33;20547;-59
2021/04/14 00:55:37;;;;;;;1.83;1.30;;;;;;;;;;4297788;33;20254;-60
2021/04/14 00:58:05;;;;;;;3.77;1.57;;;;;;;;;;4298680;33;20240;-59
2021/04/14 01:00:38;;;;;;;1.33;1.00;;;;;;;;;;4309783;33;20704;-59
2021/04/14 01:03:06;;;;;;;1.10;1.00;;;;;;;;;;4309448;33;20325;-59
2021/04/14 01:05:33;;;;;;;1.33;0.93;;;;;;;;;;4298981;33;20244;-59
2021/04/14 01:07:59;;;;;;;2.80;1.00;;;;;;;;;;4311518;33;20278;-58
2021/04/14 01:10:25;;;;;;;1.70;0.93;;;;;;;;;;4313711;33;20282;-59
2021/04/14 01:12:52;;;;;;;1.17;1.07;;;;;;;;;;4312866;33;20562;-59
2021/04/14 01:15:28;;;;;;;1.23;1.10;;;;;;;;;;4300210;33;20247;-59
2021/04/14 01:17:53;;;;;;;1.00;0.90;;;;;;;;;;4310113;33;20224;-59
2021/04/14 01:20:19;;;;;;;1.20;1.10;;;;;;;;;;4312372;33;20663;-59
2021/04/14 01:22:46;;;;;;;1.90;1.00;;;;;;;;;;4312376;33;20653;-59
2021/04/14 01:25:16;;;;;;;1.10;1.00;;;;;;;;;;4298936;33;20196;-58
2021/04/14 01:27:41;;;;;;;5.20;1.33;;;;;;;;;;4311653;33;20246;-57
2021/04/14 01:30:15;;;;;;;1.30;1.20;;;;;;;;;;4313504;33;20695;-58
2021/04/14 01:32:40;;;;;;;1.10;1.00;;;;;;;;;;4311895;33;20286;-57
2021/04/14 01:35:07;;;;;;;1.40;1.10;;;;;;;;;;4314285;33;20358;-57
2021/04/14 01:37:32;;;;;;;1.47;1.20;;;;;;;;;;4314307;33;20261;-57
2021/04/14 01:39:58;;;;;;;1.53;1.30;;;;;;;;;;4316525;33;20267;-58
2021/04/14 01:42:24;;;;;;;2.17;1.57;;;;;;;;;;4315327;33;20285;-57
2021/04/14 01:44:49;;;;;;;2.67;1.10;;;;;;;;;;4316008;33;20278;-55
2021/04/14 01:47:15;;;;;;;1.60;1.20;;;;;;;;;;4315846;33;20236;-55
2021/04/14 01:49:40;;;;;;;1.50;0.90;;;;;;;;;;4315845;33;20263;-55
2021/04/14 01:52:06;;;;;;;1.40;1.27;;;;;;;;;;4315593;33;20318;-56
2021/04/14 01:54:31;;;;;;;1.67;1.30;;;;;;;;;;4302401;33;20299;-56
2021/04/14 01:56:57;;;;;;;1.60;1.47;;;;;;;;;;4313867;33;20378;-56
2021/04/14 01:59:23;;;;;;;4.53;1.43;;;;;;;;;;4315889;33;20312;-57
2021/04/14 02:01:48;;;;;;;2.63;1.30;;;;;;;;;;4314532;33;20243;-57
2021/04/14 02:04:14;;;;;;;1.40;1.07;;;;;;;;;;4312773;33;20345;-58
2021/04/14 02:06:39;;;;;;;6.07;1.60;;;;;;;;;;4314010;33;20243;-58
2021/04/14 02:09:05;;;;;;;2.57;1.67;;;;;;;;;;4315647;33;20274;-57
2021/04/14 02:11:30;;;;;;;3.67;1.83;;;;;;;;;;4315181;33;20283;-57
2021/04/14 02:13:56;;;;;;;3.63;2.43;;;;;;;;;;4314392;33;20299;-58
2021/04/14 02:16:22;;;;;;;3.47;1.97;;;;;;;;;;4301550;33;20298;-56
2021/04/14 02:18:52;;;;;;;3.70;2.30;;;;;;;;;;4315077;33;20310;-58
2021/04/14 02:21:20;;;;;;;2.37;1.63;;;;;;;;;;4314765;33;20255;-57
2021/04/14 02:23:45;;;;;;;5.20;1.93;;;;;;;;;;4301707;33;20787;-56
2021/04/14 02:26:18;;;;;;;3.00;1.50;;;;;;;;;;4314991;33;20233;-56
2021/04/14 02:28:45;;;;;;;4.53;2.13;;;;;;;;;;4315351;33;20242;-56
2021/04/14 02:31:13;;;;;;;3.77;1.73;;;;;;;;;;4314867;33;20220;-56
2021/04/14 02:33:39;;;;;;;2.37;1.60;;;;;;;;;;4301994;33;20235;-55
2021/04/14 02:36:05;;;;;;;2.87;1.47;;;;;;;;;;4314801;33;20749;-56
2021/04/14 02:38:31;;;;;;;4.43;1.77;;;;;;;;;;4313927;33;20289;-57
2021/04/14 02:40:57;;;;;;;2.23;1.53;;;;;;;;;;4314776;33;20357;-57
2021/04/14 02:43:23;;;;;;;2.63;1.70;;;;;;;;;;4314977;33;20231;-55
2021/04/14 02:45:49;;;;;;;3.70;1.67;;;;;;;;;;4314644;33;20338;-57
2021/04/14 02:48:16;;;;;;;2.87;2.03;;;;;;;;;;4314843;33;20211;-56
2021/04/14 02:50:41;;;;;;;4.70;3.00;;;;;;;;;;4301218;33;20257;-56
2021/04/14 02:53:09;;;;;;;7.07;3.10;;;;;;;;;;4314735;33;20223;-56
2021/04/14 02:55:36;;;;;;;3.97;2.97;;;;;;;;;;4314978;33;20204;-55
2021/04/14 02:58:02;;;;;;;6.03;2.47;;;;;;;;;;4314202;33;20246;-56
2021/04/14 03:00:29;;;;;;;6.30;3.27;;;;;;;;;;4314750;33;20369;-56
2021/04/14 03:02:56;;;;;;;10.93;8.97;;;;;;;;;;4314100;33;20689;-57
2021/04/14 03:05:28;;;;;;;10.40;8.37;;;;;;;;;;4314827;33;20216;-57
2021/04/14 03:07:55;;;;;;;5.90;5.30;;;;;;;;;;4314161;33;20344;-57
2021/04/14 03:10:22;;;;;;;5.87;4.60;;;;;;;;;;4314839;33;20211;-58
2021/04/14 03:12:48;;;;;;;6.10;4.87;;;;;;;;;;4314113;33;20283;-57
2021/04/14 03:15:15;;;;;;;4.23;3.83;;;;;;;;;;4314835;33;20298;-58
2021/04/14 03:17:41;;;;;;;5.97;3.90;;;;;;;;;;4314139;33;20223;-57
2021/04/14 03:20:08;;;;;;;7.17;4.47;;;;;;;;;;4314410;33;20479;-58
2021/04/14 03:22:34;;;;;;;4.60;3.33;;;;;;;;;;4300508;33;20253;-57
2021/04/14 03:25:00;;;;;;;3.63;2.80;;;;;;;;;;4314410;33;20361;-60
2021/04/14 03:27:26;;;;;;;5.60;3.23;;;;;;;;;;4313776;33;20324;-59
2021/04/14 03:29:51;;;;;;;6.07;3.53;;;;;;;;;;4314809;33;20271;-59
2021/04/14 03:32:17;;;;;;;5.37;3.20;;;;;;;;;;4300531;33;20330;-58
2021/04/14 03:34:42;;;;;;;3.77;2.73;;;;;;;;;;4300875;33;20767;-58
2021/04/14 03:37:07;;;;;;;4.63;3.63;;;;;;;;;;4300193;33;20262;-57
2021/04/14 03:39:33;;;;;;;7.33;4.47;;;;;;;;;;4313139;33;20318;-57
2021/04/14 03:41:59;;;;;;;6.37;3.97;;;;;;;;;;4300692;33;20258;-57
2021/04/14 03:44:25;;;;;;;6.40;3.87;;;;;;;;;;4314415;33;20302;-57
2021/04/14 03:46:50;;;;;;;6.13;3.80;;;;;;;;;;4313932;33;20226;-56
2021/04/14 03:49:16;;;;;;;4.83;3.93;;;;;;;;;;4314401;33;20309;-55
2021/04/14 03:51:41;;;;;;;8.53;4.97;;;;;;;;;;4313517;33;20323;-56
2021/04/14 03:54:07;;;;;;;36.27;17.17;;;;;;;;;;4313152;33;20703;-56
2021/04/14 03:56:32;;;;;;;57.23;27.33;;;;;;;;;;4313845;33;20227;-65
2021/04/14 03:58:58;;;;;;;60.27;28.13;;;;;;;;;;4313029;33;20716;-65
2021/04/14 04:01:26;;;;;;;55.27;28.00;;;;;;;;;;4313528;33;20322;-63
2021/04/14 04:03:53;;;;;;;42.50;22.17;;;;;;;;;;4314535;33;20208;-63
2021/04/14 04:06:18;;;;;;;27.63;16.10;;;;;;;;;;4313255;33;20289;-63
2021/04/14 04:08:44;;;;;;;18.70;10.40;;;;;;;;;;4313844;33;20228;-62
2021/04/14 04:11:10;;;;;;;24.17;11.03;;;;;;;;;;4313373;33;20215;-63
2021/04/14 04:13:36;;;;;;;27.37;21.90;;;;;;;;;;4313936;33;20250;-64
2021/04/14 04:16:03;;;;;;;41.27;31.27;;;;;;;;;;4312290;33;20219;-64
2021/04/14 04:18:28;;;;;;;34.00;27.87;;;;;;;;;;4300835;33;20239;-65
2021/04/14 04:20:54;;;;;;;26.60;21.33;;;;;;;;;;4313513;33;20723;-62
2021/04/14 04:23:20;;;;;;;22.47;17.93;;;;;;;;;;4313926;33;20204;-64
2021/04/14 04:25:46;;;;;;;16.50;12.13;;;;;;;;;;4313352;33;20301;-64
2021/04/14 04:28:11;;;;;;;21.47;14.33;;;;;;;;;;4313460;33;20648;-64
2021/04/14 04:30:37;;;;;;;12.70;9.17;;;;;;;;;;4300656;33;20356;-64
2021/04/14 04:33:05;;;;;;;10.10;6.73;;;;;;;;;;4312032;33;20623;-64
2021/04/14 04:35:32;;;;;;;12.83;8.30;;;;;;;;;;4313556;33;20243;-63
2021/04/14 04:37:58;;;;;;;17.23;9.47;;;;;;;;;;4313088;33;20760;-63
2021/04/14 04:40:24;;;;;;;13.73;9.23;;;;;;;;;;4300401;33;20223;-63
2021/04/14 04:42:50;;;;;;;16.80;8.63;;;;;;;;;;4312906;33;20257;-63
2021/04/14 04:45:19;;;;;;;15.57;7.63;;;;;;;;;;4313441;33;20278;-63
2021/04/14 04:47:44;;;;;;;14.50;8.93;;;;;;;;;;4312953;33;20223;-62
2021/04/14 04:50:11;;;;;;;23.50;12.07;;;;;;;;;;4313467;33;20293;-62
2021/04/14 04:52:37;;;;;;;20.17;12.80;;;;;;;;;;4312900;33;20313;-62
2021/04/14 04:55:04;;;;;;;20.80;11.00;;;;;;;;;;4313403;33;20270;-62
2021/04/14 04:57:30;;;;;;;19.97;11.57;;;;;;;;;;4312614;33;20257;-64
2021/04/14 04:59:55;;;;;;;17.37;11.20;;;;;;;;;;4299480;33;20421;-62
2021/04/14 05:02:21;;;;;;;20.07;11.47;;;;;;;;;;4312401;33;20302;-62
2021/04/14 05:04:46;;;;;;;18.83;12.30;;;;;;;;;;4313090;33;20309;-60
2021/04/14 05:07:12;;;;;;;18.50;13.00;;;;;;;;;;4312329;33;20739;-60
2021/04/14 05:09:38;;;;;;;29.60;15.57;;;;;;;;;;4309488;33;20665;-61
2021/04/14 05:12:04;;;;;;;18.50;13.63;;;;;;;;;;4302231;33;20259;-62
2021/04/14 05:14:29;;;;;;;24.57;15.37;;;;;;;;;;4316079;33;20316;-62
2021/04/14 05:16:54;;;;;;;12.87;9.37;;;;;;;;;;4315561;33;20224;-62
2021/04/14 05:19:20;;;;;;;18.40;10.90;;;;;;;;;;4302690;33;20373;-62
2021/04/14 05:21:46;;;;;;;30.37;19.63;;;;;;;;;;4315046;33;20243;-61
2021/04/14 05:24:12;;;;;;;37.40;31.50;;;;;;;;;;4302339;33;20746;-61
2021/04/14 05:26:38;;;;;;;18.73;12.67;;;;;;;;;;4314833;33;20220;-62
2021/04/14 05:29:03;;;;;;;18.60;13.57;;;;;;;;;;4315330;33;20325;-61
2021/04/14 05:31:31;;;;;;;16.73;11.63;;;;;;;;;;4313732;33;20302;-62
2021/04/14 05:33:57;;;;;;;15.47;10.43;;;;;;;;;;4313902;33;20684;-62
2021/04/14 05:36:23;;;;;;;17.20;11.23;;;;;;;;;;4314754;33;20219;-60
2021/04/14 05:38:50;;;;;;;22.17;14.70;;;;;;;;;;4315487;33;20286;-61
2021/04/14 05:41:15;;;;;;;25.50;17.90;;;;;;;;;;4314431;33;20246;-61
2021/04/14 05:43:41;;;;;;;26.33;17.83;;;;;;;;;;4315281;33;20629;-62
2021/04/14 05:46:10;;;;;;;28.33;18.97;;;;;;;;;;4314633;33;20308;-65
2021/04/14 05:48:37;;;;;;;24.10;16.30;;;;;;;;;;4315610;33;20294;-61
2021/04/14 05:51:06;;;;;;;25.10;16.53;;;;;;;;;;4314110;33;20546;-61
2021/04/14 05:53:33;;;;;;;23.00;16.00;;;;;;;;;;4314927;33;20651;-61
2021/04/14 05:56:00;;;;;;;16.93;12.33;;;;;;;;;;4312024;33;20476;-59
2021/04/14 05:58:27;;;;;;;14.50;8.80;;;;;;;;;;4313473;33;20402;-59
2021/04/14 06:00:53;;;;;;;10.10;6.73;;;;;;;;;;4314215;33;20223;-58
2021/04/14 06:03:19;;;;;;;16.10;11.87;;;;;;;;;;4313657;33;20230;-55
2021/04/14 06:05:44;;;;;;;11.63;6.00;;;;;;;;;;4312207;33;20306;-56
2021/04/14 06:08:10;;;;;;;7.90;5.40;;;;;;;;;;4299179;33;20306;-55
2021/04/14 06:10:36;;;;;;;14.70;7.37;;;;;;;;;;4299731;33;20328;-57
2021/04/14 06:13:01;;;;;;;12.03;5.03;;;;;;;;;;4300877;33;20329;-57
2021/04/14 06:15:30;;;;;;;5.23;2.00;;;;;;;;;;4301453;33;20767;-57
2021/04/14 06:17:56;;;;;;;4.50;1.90;;;;;;;;;;4306457;33;20236;-59
2021/04/14 06:20:24;;;;;;;5.67;3.23;;;;;;;;;;4292556;33;20285;-56
2021/04/14 06:22:51;;;;;;;3.60;2.50;;;;;;;;;;4295202;33;20228;-60
2021/04/14 06:25:18;;;;;;;1.43;1.33;;;;;;;;;;4283600;33;20337;-60
2021/04/14 06:30:40;;;;;;;6.00;2.63;;;;;;;;;;4291539;33;20251;-58
2021/04/14 06:33:08;;;;;;;5.53;2.13;;;;;;;;;;4295510;33;20841;-61
2021/04/14 06:35:34;;;;;;;9.40;4.07;;;;;;;;;;4292799;33;20500;-59
2021/04/14 06:38:02;;;;;;;4.97;2.33;;;;;;;;;;4301580;33;20271;-59
2021/04/14 06:43:33;;;;;;;7.50;2.13;;;;;;;;;;4292961;33;20349;-59
2021/04/14 06:46:03;;;;;;;6.87;1.87;;;;;;;;;;4293659;33;20566;-59
2021/04/14 06:48:31;;;;;;;4.33;2.73;;;;;;;;;;4287752;33;20501;-59
2021/04/14 06:51:05;;;;;;;5.03;2.53;;;;;;;;;;4294196;33;20335;-58
2021/04/14 06:53:41;;;;;;;6.13;3.07;;;;;;;;;;4293040;33;20250;-60
2021/04/14 06:56:15;;;;;;;3.17;2.70;;;;;;;;;;4296538;33;20360;-61
2021/04/14 06:58:58;;;;;;;13.70;5.50;;;;;;;;;;4295619;33;20692;-59
2021/04/14 07:01:30;;;;;;;8.87;5.70;;;;;;;;;;4300315;33;20246;-59
2021/04/14 07:04:16;;;;;;;13.73;9.63;;;;;;;;;;4290323;33;20262;-59
2021/04/14 07:06:43;;;;;;;7.07;4.10;;;;;;;;;;4302748;33;20520;-59
2021/04/14 07:09:13;;;;;;;5.63;3.23;;;;;;;;;;4303830;33;20342;-59
2021/04/14 07:11:41;;;;;;;4.50;3.00;;;;;;;;;;4306811;33;20224;-59
2021/04/14 07:14:09;;;;;;;5.37;2.90;;;;;;;;;;4307929;33;20455;-59
2021/04/14 07:16:37;;;;;;;5.90;2.67;;;;;;;;;;4311926;33;20635;-58
2021/04/14 07:19:08;;;;;;;4.23;3.20;;;;;;;;;;4308850;33;20290;-58
2021/04/14 07:21:48;;;;;;;6.47;2.83;;;;;;;;;;4307878;33;20224;-57
2021/04/14 07:24:34;;;;;;;5.13;3.30;;;;;;;;;;4313724;33;20203;-59
2021/04/14 07:27:13;;;;;;;6.67;3.83;;;;;;;;;;4306089;33;20251;-58
2021/04/14 07:29:44;;;;;;;11.70;4.93;;;;;;;;;;4312759;33;20361;-58
2021/04/14 07:32:23;;;;;;;9.80;3.67;;;;;;;;;;4307480;33;20297;-59
2021/04/14 07:34:59;;;;;;;13.40;4.40;;;;;;;;;;4306492;33;20212;-58
2021/04/14 07:37:45;;;;;;;12.33;8.00;;;;;;;;;;4309822;33;20409;-57
2021/04/14 07:40:31;;;;;;;9.83;5.87;;;;;;;;;;4296417;33;20223;-58
2021/04/14 07:43:32;;;;;;;9.80;5.10;;;;;;;;;;4279318;33;20253;-57
2021/04/14 07:45:58;;;;;;;8.00;3.80;;;;;;;;;;4308723;33;20203;-58
2021/04/14 07:48:31;;;;;;;4.07;2.40;;;;;;;;;;4309678;33;20235;-59
2021/04/14 07:51:00;;;;;;;3.40;2.57;;;;;;;;;;4303219;33;20641;-57
2021/04/14 07:53:28;;;;;;;15.97;8.57;;;;;;;;;;4311956;33;20215;-59
2021/04/14 07:56:13;;;;;;;5.23;3.40;;;;;;;;;;4305670;33;20401;-57
2021/04/14 07:58:42;;;;;;;11.13;5.40;;;;;;;;;;4311268;33;20255;-57
2021/04/14 08:01:19;;;;;;;8.07;3.27;;;;;;;;;;4312666;33;20310;-58
2021/04/14 08:03:46;;;;;;;4.97;2.93;;;;;;;;;;4306103;33;20321;-57
2021/04/14 08:06:18;;;;;;;35.37;23.07;;;;;;;;;;4303437;33;20608;-57
2021/04/14 08:08:46;;;;;;;12.33;6.17;;;;;;;;;;4311238;33;20262;-55
2021/04/14 08:11:17;;;;;;;13.97;6.23;;;;;;;;;;4309583;33;20234;-56
2021/04/14 08:13:44;;;;;;;7.23;4.13;;;;;;;;;;4311384;33;20639;-56
2021/04/14 08:16:14;;;;;;;9.10;6.33;;;;;;;;;;4304108;33;20212;-56
2021/04/14 08:18:50;;;;;;;8.97;3.17;;;;;;;;;;4309455;33;20270;-57
2021/04/14 08:21:25;;;;;;;40.50;22.60;;;;;;;;;;4306354;33;20242;-57
2021/04/14 08:23:57;;;;;;;15.60;8.77;;;;;;;;;;4306247;33;20232;-57
2021/04/14 08:26:24;;;;;;;8.40;6.00;;;;;;;;;;4309481;33;20223;-57
2021/04/14 08:28:51;;;;;;;4.07;2.90;;;;;;;;;;4313352;33;20302;-56
2021/04/14 08:31:35;;;;;;;13.87;3.37;;;;;;;;;;4307937;33;20314;-58
2021/04/14 08:34:22;;;;;;;7.40;2.60;;;;;;;;;;4299245;33;20377;-56
2021/04/14 08:36:55;;;;;;;49.07;20.10;;;;;;;;;;4299091;33;20318;-57
2021/04/14 08:39:26;;;;;;;21.03;8.60;;;;;;;;;;4310541;33;20270;-56
2021/04/14 08:42:04;;;;;;;7.23;4.07;;;;;;;;;;4308870;33;20755;-57
2021/04/14 08:44:34;;;;;;;46.73;17.70;;;;;;;;;;4307785;33;20237;-57
2021/04/14 08:47:25;;;;;;;11.03;4.20;;;;;;;;;;4309010;33;20302;-57
2021/04/14 08:50:04;;;;;;;3.97;1.70;;;;;;;;;;4299595;33;20252;-56
2021/04/14 08:52:31;;;;;;;32.30;12.63;;;;;;;;;;4311434;33;20593;-56
2021/04/14 08:54:57;;;;;;;12.73;3.67;;;;;;;;;;4308546;33;20230;-58
2021/04/14 08:57:23;;;;;;;8.63;4.03;;;;;;;;;;4309876;33;20274;-56
2021/04/14 08:59:49;;;;;;;11.77;3.97;;;;;;;;;;4305153;33;20228;-56
2021/04/14 09:02:17;;;;;;;8.37;3.80;;;;;;;;;;4307461;33;20393;-56
2021/04/14 09:04:46;;;;;;;4.03;2.57;;;;;;;;;;4307257;33;20713;-57
2021/04/14 09:07:16;;;;;;;8.77;2.07;;;;;;;;;;4310412;33;20262;-58
2021/04/14 09:09:48;;;;;;;7.70;4.50;;;;;;;;;;4310530;33;20224;-59
2021/04/14 09:12:15;;;;;;;6.30;2.50;;;;;;;;;;4296806;33;20589;-59
2021/04/14 09:14:41;;;;;;;5.10;3.10;;;;;;;;;;4307445;33;20676;-58
2021/04/14 09:17:12;;;;;;;6.07;3.70;;;;;;;;;;4307938;33;20454;-59
2021/04/14 09:19:41;;;;;;;8.33;4.73;;;;;;;;;;4310875;33;20277;-57
2021/04/14 09:22:12;;;;;;;9.70;5.57;;;;;;;;;;4311393;33;20666;-58
2021/04/14 09:24:44;;;;;;;5.13;3.60;;;;;;;;;;4316311;33;20851;-57
2021/04/14 09:27:22;;;;;;;16.57;8.37;;;;;;;;;;4307926;33;20219;-56
2021/04/14 09:30:05;;;;;;;5.90;3.30;;;;;;;;;;4312907;33;20321;-57
2021/04/14 09:32:38;;;;;;;9.07;4.20;;;;;;;;;;4311706;33;20558;-57
2021/04/14 09:35:29;;;;;;;7.30;2.60;;;;;;;;;;4309395;33;20200;-58
2021/04/14 09:38:25;;;;;;;6.43;3.00;;;;;;;;;;4310772;33;20289;-58
2021/04/14 09:40:53;;;;;;;3.70;1.90;;;;;;;;;;4299085;33;20260;-56
2021/04/14 09:43:27;;;;;;;2.43;1.67;;;;;;;;;;4312518;33;20285;-57
2021/04/14 09:46:03;;;;;;;4.63;2.03;;;;;;;;;;4309155;33;20219;-58
2021/04/14 09:48:49;;;;;;;3.67;2.20;;;;;;;;;;4313044;33;20605;-57
2021/04/14 09:51:31;;;;;;;3.57;1.67;;;;;;;;;;4310629;33;20293;-58
2021/04/14 09:53:59;;;;;;;4.37;2.67;;;;;;;;;;4298028;33;20239;-58
2021/04/14 09:56:30;;;;;;;4.83;2.47;;;;;;;;;;4310479;33;20299;-58
2021/04/14 09:59:17;;;;;;;3.30;1.90;;;;;;;;;;4311398;33;20217;-57
2021/04/14 10:01:43;;;;;;;2.73;1.57;;;;;;;;;;4313982;33;20242;-58
2021/04/14 10:04:21;;;;;;;3.57;2.03;;;;;;;;;;4312624;33;20291;-59
2021/04/14 10:06:53;;;;;;;3.30;1.83;;;;;;;;;;4314177;33;20238;-59
2021/04/14 10:09:24;;;;;;;2.60;1.60;;;;;;;;;;4314352;33;20230;-57
2021/04/14 10:11:50;;;;;;;4.57;2.13;;;;;;;;;;4314438;33;20239;-58
2021/04/14 10:14:20;;;;;;;3.23;2.13;;;;;;;;;;4312048;33;20366;-57
2021/04/14 10:16:47;;;;;;;5.43;3.03;;;;;;;;;;4313718;33;20416;-58
2021/04/14 10:19:24;;;;;;;7.43;4.50;;;;;;;;;;4314930;33;20239;-58
2021/04/14 10:21:50;;;;;;;9.93;3.87;;;;;;;;;;4314835;33;20647;-58
2021/04/14 10:24:18;;;;;;;12.40;9.27;;;;;;;;;;4313230;33;20303;-57
2021/04/14 10:26:55;;;;;;;9.33;7.30;;;;;;;;;;4301543;33;20278;-56
2021/04/14 10:29:26;;;;;;;6.77;3.67;;;;;;;;;;4311580;33;20664;-57
2021/04/14 10:31:54;;;;;;;6.17;2.57;;;;;;;;;;4314815;33;20318;-57
2021/04/14 10:34:33;;;;;;;2.80;1.90;;;;;;;;;;4312072;33;20236;-57
2021/04/14 10:37:17;;;;;;;2.78;2.10;;;;;;;;;;4312318;33;20238;-56
2021/04/14 10:39:43;;;;;;;5.83;2.00;;;;;;;;;;4310592;33;20708;-57
2021/04/14 10:42:17;;;;;;;8.23;2.43;;;;;;;;;;4314489;33;20235;-57
2021/04/14 10:44:43;;;;;;;4.55;1.92;;;;;;;;;;4311274;33;20359;-57
2021/04/14 11:10:55;;;;;;;3.00;1.62;;;;;;;;;;4445746;32;20271;-57
2021/04/14 11:13:27;;;;;;;3.35;1.42;;;;;;;;;;4439866;32;20208;-57
2021/04/14 11:15:53;;;;;;;5.53;1.95;;;;;;;;;;4434729;32;20314;-58
2021/04/14 11:18:30;;;;;;;5.82;2.85;;;;;;;;;;4445263;32;20200;-57
2021/04/14 11:23:36;;;;;;;2.00;1.48;;;;;;;;;;4445365;32;20211;-57
2021/04/14 11:26:08;;;;;;;5.50;2.62;;;;;;;;;;4444900;32;20649;-57
2021/04/14 11:28:42;;;;;;;2.97;2.22;;;;;;;;;;4437182;32;20316;-56
2021/04/14 11:31:09;;;;;;;18.12;9.23;;;;;;;;;;4442379;32;20212;-57
2021/04/14 11:33:44;;;;;;;5.93;3.55;;;;;;;;;;4440834;32;20216;-58
2021/04/14 11:43:26;;;;;;;8.02;5.72;;;;;;;;;;4463699;32;20259;-58
2021/04/14 11:46:08;;;;;;;17.95;9.38;;;;;;;;;;4451295;32;20227;-59
2021/04/14 11:48:40;;;;;;;9.73;6.05;;;;;;;;;;4460560;32;20254;-57
2021/04/14 11:51:25;;;;;;;9.13;5.60;;;;;;;;;;4458838;32;20492;-59
2021/04/14 11:53:55;;;;;;;4.53;2.62;;;;;;;;;;4455207;32;20306;-60
2021/04/14 11:56:44;;;;;;;4.17;2.37;;;;;;;;;;4434784;32;20282;-59
2021/04/14 11:59:28;;;;;;;5.07;2.78;;;;;;;;;;4459401;32;20651;-59
2021/04/14 12:02:03;;;;;;;3.12;2.67;;;;;;;;;;4461780;32;20256;-59
2021/04/14 12:04:29;;;;;;;8.25;5.85;;;;;;;;;;4454040;32;20700;-60
2021/04/14 12:06:55;;;;;;;7.00;3.12;;;;;;;;;;4446448;32;20216;-58
2021/04/14 12:09:20;;;;;;;5.85;4.20;;;;;;;;;;4460025;32;20223;-61
2021/04/14 12:11:57;;;;;;;6.10;3.33;;;;;;;;;;4461671;32;20291;-61
2021/04/14 12:14:22;;;;;;;4.62;2.53;;;;;;;;;;4454566;32;20624;-61
2021/04/14 12:16:48;;;;;;;5.53;4.95;;;;;;;;;;4457799;32;20333;-61
2021/04/14 12:19:13;;;;;;;2.40;1.87;;;;;;;;;;4456905;32;20287;-60
2021/04/14 12:21:39;;;;;;;4.40;2.97;;;;;;;;;;4457603;32;20569;-60
2021/04/14 12:24:04;;;;;;;2.40;1.57;;;;;;;;;;4458408;32;20224;-61
2021/04/14 12:26:30;;;;;;;2.80;2.13;;;;;;;;;;4461601;32;20305;-60
2021/04/14 12:28:55;;;;;;;9.30;4.20;;;;;;;;;;4456414;32;20743;-60
2021/04/14 12:31:21;;;;;;;2.13;1.67;;;;;;;;;;4459879;32;20212;-59
2021/04/14 12:33:47;;;;;;;1.70;1.27;;;;;;;;;;4457302;32;20269;-59
2021/04/14 12:36:13;;;;;;;1.87;1.10;;;;;;;;;;4453914;32;20671;-60
2021/04/14 12:38:39;;;;;;;4.45;2.85;;;;;;;;;;4458493;32;20220;-61
2021/04/14 12:41:04;;;;;;;2.50;1.62;;;;;;;;;;4458911;32;20208;-60
2021/04/14 12:43:30;;;;;;;1.17;1.00;;;;;;;;;;4460790;32;20262;-60
2021/04/14 12:45:55;;;;;;;7.22;2.15;;;;;;;;;;4438187;32;20315;-61
2021/04/14 12:48:24;;;;;;;5.70;3.55;;;;;;;;;;4460781;32;20247;-60
2021/04/14 12:51:07;;;;;;;10.20;5.22;;;;;;;;;;4449792;32;20232;-61
2021/04/14 12:53:39;;;;;;;3.35;1.98;;;;;;;;;;4447241;32;20220;-60
2021/04/14 12:56:06;;;;;;;3.12;1.98;;;;;;;;;;4432233;32;20229;-60
2021/04/14 12:58:37;;;;;;;3.55;1.70;;;;;;;;;;4438579;32;20240;-60
2021/04/14 13:01:04;;;;;;;2.45;2.05;;;;;;;;;;4451001;32;20599;-59
2021/04/14 13:03:39;;;;;;;1.52;0.80;;;;;;;;;;4434875;32;20677;-60
2021/04/14 13:06:14;;;;;;;1.02;0.90;;;;;;;;;;4445654;32;20199;-59
2021/04/14 13:08:41;;;;;;;0.73;0.73;;;;;;;;;;4448515;32;20343;-60
2021/04/14 13:11:11;;;;;;;5.18;1.67;;;;;;;;;;4450798;32;20751;-59
2021/04/14 13:13:36;;;;;;;6.68;2.20;;;;;;;;;;4425439;32;20307;-59
2021/04/14 13:16:14;;;;;;;2.28;1.58;;;;;;;;;;4466932;32;20279;-60
2021/04/14 13:18:40;;;;;;;2.67;1.95;;;;;;;;;;4439639;32;20317;-59
2021/04/14 13:21:20;;;;;;;2.45;2.12;;;;;;;;;;4420629;32;20372;-60
2021/04/14 13:23:49;;;;;;;6.32;4.50;;;;;;;;;;4447097;32;20363;-60
2021/04/14 13:26:33;;;;;;;6.85;2.50;;;;;;;;;;4449759;32;20208;-60
2021/04/14 13:29:14;;;;;;;3.97;2.62;;;;;;;;;;4444480;32;20235;-59
2021/04/14 13:31:51;;;;;;;5.15;2.30;;;;;;;;;;4448332;32;20288;-61
2021/04/14 13:34:40;;;;;;;6.07;2.85;;;;;;;;;;4443003;32;20268;-60
2021/04/14 13:37:16;;;;;;;3.60;2.70;;;;;;;;;;4435171;32;20284;-60
2021/04/14 13:39:45;;;;;;;3.83;2.37;;;;;;;;;;4443304;32;20646;-61
2021/04/14 13:42:16;;;;;;;7.50;4.30;;;;;;;;;;4450362;32;20672;-60
2021/04/14 13:44:41;;;;;;;8.75;6.00;;;;;;;;;;4440005;32;20265;-59
2021/04/14 13:47:15;;;;;;;7.87;5.55;;;;;;;;;;4442104;32;20207;-60
2021/04/14 13:49:54;;;;;;;17.40;9.30;;;;;;;;;;4448863;32;20334;-60
2021/04/14 13:52:25;;;;;;;10.60;2.95;;;;;;;;;;4445718;32;20233;-60
2021/04/14 13:54:54;;;;;;;3.55;2.25;;;;;;;;;;4432599;32;20252;-60
2021/04/14 13:57:27;;;;;;;2.33;1.70;;;;;;;;;;4435732;32;20244;-60
2021/04/14 13:59:59;;;;;;;2.90;1.58;;;;;;;;;;4444302;32;20304;-59
2021/04/14 14:02:33;;;;;;;2.07;1.60;;;;;;;;;;4448573;32;20296;-60
2021/04/14 14:05:01;;;;;;;2.05;1.73;;;;;;;;;;4448247;32;20292;-60
2021/04/14 14:07:37;;;;;;;2.22;1.55;;;;;;;;;;4449041;32;20377;-60
2021/04/14 14:10:09;;;;;;;6.93;1.83;;;;;;;;;;4441279;32;20306;-61
2021/04/14 14:12:38;;;;;;;3.75;1.83;;;;;;;;;;4434411;32;20657;-59
2021/04/14 14:15:25;;;;;;;4.82;2.25;;;;;;;;;;4455579;32;20349;-59
2021/04/14 14:17:51;;;;;;;9.03;2.30;;;;;;;;;;4438116;32;20274;-60
2021/04/14 14:20:22;;;;;;;13.53;3.37;;;;;;;;;;4444197;32;20665;-60
2021/04/14 14:23:02;;;;;;;3.90;2.75;;;;;;;;;;4440969;32;20378;-61
2021/04/14 14:25:27;;;;;;;6.20;4.50;;;;;;;;;;4444971;32;20303;-59
2021/04/14 14:27:53;;;;;;;4.37;3.00;;;;;;;;;;4440554;32;20331;-60
2021/04/14 14:30:18;;;;;;;8.13;2.83;;;;;;;;;;4447327;32;20630;-59
2021/04/14 14:32:44;;;;;;;6.20;2.70;;;;;;;;;;4447511;32;20317;-59
2021/04/14 14:35:10;;;;;;;5.32;2.75;;;;;;;;;;4447610;32;20339;-59
2021/04/14 14:37:44;;;;;;;11.10;2.83;;;;;;;;;;4448041;32;20688;-59
2021/04/14 14:40:27;;;;;;;5.68;3.20;;;;;;;;;;4440660;32;20208;-60
2021/04/14 14:43:00;;;;;;;3.80;2.95;;;;;;;;;;4390640;32;20334;-60
2021/04/14 14:46:20;;;;;;;6.28;3.45;;;;;;;;;;4350404;32;20365;-60
2021/04/14 14:50:57;;;;;;;4.50;3.33;;;;;;;;;;4477246;31;20362;-59
2021/04/14 14:53:24;;;;;;;6.83;3.73;;;;;;;;;;4468267;32;20254;-59
2021/04/14 14:55:53;;;;;;;6.00;4.57;;;;;;;;;;4459734;32;20673;-59
2021/04/14 14:58:22;;;;;;;4.22;3.50;;;;;;;;;;4460519;32;20351;-60
2021/04/14 15:00:57;;;;;;;8.53;3.83;;;;;;;;;;4457980;32;20766;-59
2021/04/14 15:03:22;;;;;;;2.63;1.87;;;;;;;;;;4458819;32;20208;-59
2021/04/14 15:05:48;;;;;;;6.63;4.17;;;;;;;;;;4460211;32;20378;-59
2021/04/14 15:08:13;;;;;;;7.70;5.20;;;;;;;;;;4455795;32;20307;-59
2021/04/14 15:10:38;;;;;;;12.93;9.90;;;;;;;;;;4462944;32;20290;-59
2021/04/14 15:13:04;;;;;;;10.13;5.70;;;;;;;;;;4461973;32;20249;-58
2021/04/14 15:15:29;;;;;;;9.00;4.23;;;;;;;;;;4455189;32;20894;-59
2021/04/14 15:17:55;;;;;;;6.47;4.00;;;;;;;;;;4463206;32;20318;-59
2021/04/14 15:20:26;;;;;;;8.17;5.03;;;;;;;;;;4465992;32;20246;-60
2021/04/14 15:22:52;;;;;;;7.68;3.10;;;;;;;;;;4449902;32;20339;-59
2021/04/14 15:25:18;;;;;;;6.90;4.40;;;;;;;;;;4458861;32;20302;-60
2021/04/14 15:27:44;;;;;;;4.20;2.93;;;;;;;;;;4458941;32;20382;-59
2021/04/14 15:30:12;;;;;;;5.68;3.40;;;;;;;;;;4461073;32;20637;-59
2021/04/14 15:32:39;;;;;;;7.67;4.13;;;;;;;;;;4462666;32;20509;-59
2021/04/14 15:35:07;;;;;;;5.73;4.40;;;;;;;;;;4462188;32;20258;-58